createdAt,value
2022-08-31T00:00:21.765Z,100998.94
2022-08-31T00:03:08.585Z,101001.41
2022-08-31T00:05:38.599Z,100996.81
2022-08-31T00:08:06.829Z,100996.53
2022-08-31T00:10:37.059Z,100996.78
2022-08-31T00:13:07.049Z,100999.72
2022-08-31T00:15:35.989Z,101005.91
2022-08-31T00:18:05.921Z,100999.44
2022-08-31T00:20:35.013Z,100996.47
2022-08-31T00:23:03.781Z,101002.66
2022-08-31T00:25:32.268Z,100992.97
2022-08-31T00:28:00.115Z,100996.41
2022-08-31T00:30:28.292Z,100992.13
2022-08-31T00:32:58.370Z,100998.31
2022-08-31T00:35:28.910Z,100990.59
2022-08-31T00:37:57.776Z,100987.94
2022-08-31T00:40:26.664Z,100994.31
2022-08-31T00:42:56.005Z,100992.72
2022-08-31T00:45:24.985Z,100986.78
2022-08-31T00:47:53.117Z,100994.00
2022-08-31T00:50:23.306Z,100993.16
2022-08-31T00:52:56.305Z,100990.16
2022-08-31T00:55:29.285Z,100981.75
2022-08-31T00:58:00.775Z,100981.16
2022-08-31T01:00:30.030Z,100984.44
2022-08-31T01:03:01.725Z,100986.63
2022-08-31T01:05:31.082Z,100991.47
2022-08-31T01:08:02.077Z,100989.25
2022-08-31T01:10:33.946Z,100988.75
2022-08-31T01:13:02.919Z,100983.88
2022-08-31T01:15:32.070Z,100978.00
2022-08-31T01:18:03.035Z,100981.72
2022-08-31T01:20:37.581Z,100981.16
2022-08-31T01:23:14.391Z,100979.88
2022-08-31T01:25:45.647Z,100976.16
2022-08-31T01:28:14.737Z,100981.00
2022-08-31T01:30:44.929Z,100976.97
2022-08-31T01:33:13.342Z,100985.59
2022-08-31T01:35:46.153Z,100987.13
2022-08-31T01:38:15.723Z,100987.72
2022-08-31T01:40:48.489Z,100982.81
2022-08-31T01:43:16.682Z,100986.50
2022-08-31T01:45:45.000Z,100987.63
2022-08-31T01:48:13.273Z,100989.78
2022-08-31T01:50:41.078Z,100987.63
2022-08-31T01:53:09.232Z,100990.81
2022-08-31T01:55:38.820Z,100989.78
2022-08-31T01:58:07.563Z,100991.31
2022-08-31T02:00:36.688Z,100990.28
2022-08-31T02:03:07.846Z,100994.84
2022-08-31T02:05:36.813Z,100980.88
2022-08-31T02:08:06.330Z,100986.19
2022-08-31T02:10:34.634Z,100991.03
2022-08-31T02:13:04.409Z,100983.97
2022-08-31T02:15:32.529Z,100991.81
2022-08-31T02:18:00.545Z,100977.81
2022-08-31T02:20:29.778Z,100983.16
2022-08-31T02:22:58.531Z,100982.66
2022-08-31T02:25:26.543Z,100984.09
2022-08-31T02:27:54.300Z,100984.59
2022-08-31T02:30:23.672Z,100990.09
2022-08-31T02:32:51.787Z,100988.53
2022-08-31T02:35:19.767Z,100989.28
2022-08-31T02:37:47.901Z,100993.53
2022-08-31T02:40:16.375Z,100989.56
2022-08-31T02:42:53.315Z,100992.78
2022-08-31T02:45:24.668Z,100992.53
2022-08-31T02:47:52.674Z,100989.47
2022-08-31T02:50:20.960Z,100991.97
2022-08-31T02:52:49.939Z,100989.97
2022-08-31T02:55:18.885Z,100986.47
2022-08-31T02:57:50.406Z,100985.34
2022-08-31T03:00:19.659Z,100986.94
2022-08-31T03:02:49.211Z,100976.50
2022-08-31T03:05:17.485Z,100987.44
2022-08-31T03:07:45.431Z,100980.16
2022-08-31T03:10:15.540Z,100986.63
2022-08-31T03:12:43.787Z,100980.19
2022-08-31T03:15:12.330Z,100992.50
2022-08-31T03:17:40.414Z,100987.13
2022-08-31T03:20:11.317Z,100990.69
2022-08-31T03:22:40.605Z,100986.94
2022-08-31T03:25:13.714Z,100985.63
2022-08-31T03:27:42.347Z,100987.25
2022-08-31T03:30:12.992Z,100973.75
2022-08-31T03:32:42.915Z,100981.38
2022-08-31T03:35:12.694Z,100983.47
2022-08-31T03:37:40.542Z,100984.28
2022-08-31T03:40:10.390Z,100988.34
2022-08-31T03:42:38.444Z,100980.25
2022-08-31T03:45:08.544Z,100979.75
2022-08-31T03:47:44.442Z,100973.31
2022-08-31T03:50:15.982Z,100979.13
2022-08-31T03:52:44.232Z,100976.72
2022-08-31T03:55:12.769Z,100981.88
2022-08-31T03:57:40.708Z,100983.25
2022-08-31T04:00:10.671Z,100977.81
2022-08-31T04:02:39.466Z,100981.28
2022-08-31T04:05:08.898Z,100989.13
2022-08-31T04:07:42.725Z,100985.84
2022-08-31T04:10:12.370Z,100988.75
2022-08-31T04:12:40.321Z,100987.13
2022-08-31T04:15:09.698Z,100985.53
2022-08-31T04:17:38.160Z,100989.50
2022-08-31T04:20:07.632Z,100987.88
2022-08-31T04:22:35.501Z,100998.38
2022-08-31T04:25:05.165Z,100997.22
2022-08-31T04:27:33.024Z,100993.53
2022-08-31T04:30:02.024Z,101004.81
2022-08-31T04:32:30.294Z,101002.66
2022-08-31T04:34:58.260Z,101007.38
2022-08-31T04:37:26.399Z,101008.28
2022-08-31T04:39:55.502Z,101010.53
2022-08-31T04:42:31.035Z,101011.34
2022-08-31T04:44:59.078Z,101008.66
2022-08-31T04:47:26.907Z,101006.72
2022-08-31T04:49:55.102Z,101004.03
2022-08-31T04:52:28.104Z,100999.78
2022-08-31T04:54:56.804Z,101006.78
2022-08-31T04:57:24.651Z,101008.09
2022-08-31T04:59:53.859Z,101012.63
2022-08-31T05:02:21.922Z,101011.50
2022-08-31T05:04:49.826Z,101009.41
2022-08-31T05:07:17.703Z,101003.78
2022-08-31T05:09:45.859Z,101007.22
2022-08-31T05:12:13.660Z,101013.97
2022-08-31T05:14:43.648Z,101006.91
2022-08-31T05:17:15.006Z,101013.38
2022-08-31T05:19:43.456Z,101002.72
2022-08-31T05:22:11.252Z,101008.97
2022-08-31T05:24:39.115Z,101015.22
2022-08-31T05:27:07.878Z,101008.41
2022-08-31T05:29:35.709Z,101011.72
2022-08-31T05:32:03.837Z,101005.47
2022-08-31T05:34:34.287Z,101006.53
2022-08-31T05:37:02.101Z,101005.41
2022-08-31T05:39:30.905Z,101009.03
2022-08-31T05:41:59.093Z,101005.53
2022-08-31T05:44:29.333Z,101006.22
2022-08-31T05:47:03.479Z,101005.22
2022-08-31T05:49:33.661Z,101005.78
2022-08-31T05:52:02.206Z,101012.72
2022-08-31T05:54:30.414Z,101015.09
2022-08-31T05:57:01.284Z,101010.84
2022-08-31T05:59:30.264Z,101018.91
2022-08-31T06:01:58.264Z,101018.34
2022-08-31T06:04:26.471Z,101025.06
2022-08-31T06:06:55.679Z,101013.84
2022-08-31T06:09:23.895Z,101025.69
2022-08-31T06:11:52.288Z,101020.97
2022-08-31T06:14:22.791Z,101022.50
2022-08-31T06:16:51.769Z,101022.09
2022-08-31T06:19:20.541Z,101017.00
2022-08-31T06:21:52.185Z,101029.38
2022-08-31T06:24:21.399Z,101022.69
2022-08-31T06:26:56.753Z,101024.25
2022-08-31T06:29:25.929Z,101027.44
2022-08-31T06:31:54.299Z,101028.88
2022-08-31T06:34:23.413Z,101030.88
2022-08-31T06:36:51.377Z,101030.69
2022-08-31T06:39:19.537Z,101031.50
2022-08-31T06:41:52.584Z,101039.44
2022-08-31T06:44:22.433Z,101041.84
2022-08-31T06:46:50.699Z,101040.84
2022-08-31T06:49:19.234Z,101046.72
2022-08-31T06:51:47.373Z,101053.41
2022-08-31T06:54:29.169Z,101050.50
2022-08-31T06:57:00.055Z,101055.34
2022-08-31T06:59:29.783Z,101053.84
2022-08-31T07:01:59.181Z,101062.47
2022-08-31T07:04:27.677Z,101070.56
2022-08-31T07:06:55.527Z,101071.25
2022-08-31T07:09:23.769Z,101076.69
2022-08-31T07:11:53.552Z,101076.25
2022-08-31T07:14:24.835Z,101084.78
2022-08-31T07:16:54.800Z,101085.38
2022-08-31T07:19:23.021Z,101077.72
2022-08-31T07:21:52.414Z,101087.94
2022-08-31T07:24:24.390Z,101088.19
2022-08-31T07:26:54.432Z,101092.41
2022-08-31T07:29:25.933Z,101083.50
2022-08-31T07:31:56.247Z,101087.22
2022-08-31T07:34:27.250Z,101089.47
2022-08-31T07:37:14.677Z,101086.69
2022-08-31T07:40:06.788Z,101087.63
2022-08-31T07:42:38.567Z,101093.94
2022-08-31T07:45:12.997Z,101091.25
2022-08-31T07:47:47.202Z,101084.94
2022-08-31T07:50:19.506Z,101094.59
2022-08-31T07:52:54.183Z,101094.94
2022-08-31T07:55:24.477Z,101094.56
2022-08-31T07:57:54.956Z,101097.31
2022-08-31T08:00:26.787Z,101099.84
2022-08-31T08:02:55.296Z,101100.00
2022-08-31T08:05:26.785Z,101111.59
2022-08-31T08:08:11.879Z,101106.06
2022-08-31T08:10:52.176Z,101111.44
2022-08-31T08:13:22.716Z,101109.44
2022-08-31T08:15:52.807Z,101100.22
2022-08-31T08:18:21.300Z,101107.19
2022-08-31T08:20:49.697Z,101104.28
2022-08-31T08:23:27.719Z,101101.13
2022-08-31T08:26:01.294Z,101100.69
2022-08-31T08:28:40.112Z,101100.38
2022-08-31T08:31:14.637Z,101097.84
2022-08-31T08:33:43.541Z,101101.28
2022-08-31T08:36:12.606Z,101105.03
2022-08-31T08:38:44.048Z,101096.69
2022-08-31T08:41:16.915Z,101101.41
2022-08-31T08:43:52.418Z,101099.31
2022-08-31T08:46:35.260Z,101101.66
2022-08-31T08:49:14.461Z,101096.22
2022-08-31T08:51:44.086Z,101102.81
2022-08-31T08:54:14.738Z,101090.47
2022-08-31T08:56:47.860Z,101095.38
2022-08-31T08:59:19.648Z,101088.75
2022-08-31T09:01:56.421Z,101096.59
2022-08-31T09:04:45.015Z,101092.03
2022-08-31T09:07:30.741Z,101087.00
2022-08-31T09:10:02.996Z,101094.34
2022-08-31T09:12:44.765Z,101083.81
2022-08-31T09:15:36.867Z,101090.28
2022-08-31T09:18:17.987Z,101095.72
2022-08-31T09:21:02.792Z,101098.44
2022-08-31T09:23:36.834Z,101098.47
2022-08-31T09:26:08.363Z,101095.75
2022-08-31T09:28:39.133Z,101098.47
2022-08-31T09:31:07.317Z,101092.31
2022-08-31T09:33:51.139Z,101086.34
2022-08-31T09:36:22.822Z,101087.44
2022-08-31T09:38:51.966Z,101080.19
2022-08-31T09:41:33.069Z,101084.00
2022-08-31T09:44:34.485Z,101075.13
2022-08-31T09:47:05.739Z,101088.84
2022-08-31T09:49:37.742Z,101082.94
2022-08-31T09:52:42.632Z,101082.41
2022-08-31T09:55:14.701Z,101076.41
2022-08-31T09:57:45.613Z,101069.94
2022-08-31T10:00:16.886Z,101076.41
2022-08-31T10:02:44.912Z,101074.81
2022-08-31T10:05:37.099Z,101074.00
2022-08-31T10:08:18.882Z,101075.84
2022-08-31T10:10:51.117Z,101073.94
2022-08-31T10:13:24.168Z,101073.66
2022-08-31T10:15:58.078Z,101066.34
2022-08-31T10:18:32.837Z,101072.03
2022-08-31T10:21:08.351Z,101057.50
2022-08-31T10:23:42.004Z,101063.44
2022-08-31T10:26:17.548Z,101065.53
2022-08-31T10:28:50.967Z,101065.50
2022-08-31T10:31:25.485Z,101068.22
2022-08-31T10:34:18.883Z,101061.47
2022-08-31T10:36:54.049Z,101061.19
2022-08-31T10:39:29.999Z,101057.63
2022-08-31T10:42:05.652Z,101054.13
2022-08-31T10:44:39.368Z,101060.88
2022-08-31T10:47:08.893Z,101066.25
2022-08-31T10:49:42.532Z,101054.38
2022-08-31T10:52:18.212Z,101060.56
2022-08-31T10:54:54.516Z,101063.78
2022-08-31T10:57:33.257Z,101047.44
2022-08-31T11:00:07.514Z,101060.47
2022-08-31T11:02:59.843Z,101055.03
2022-08-31T11:05:35.502Z,101048.59
2022-08-31T11:08:28.041Z,101053.44
2022-08-31T11:10:58.200Z,101059.28
2022-08-31T11:13:51.686Z,101045.22
2022-08-31T11:16:43.800Z,101051.75
2022-08-31T11:19:39.350Z,101049.56
2022-08-31T11:22:31.819Z,101042.03
2022-08-31T11:25:17.885Z,101047.94
2022-08-31T11:27:51.095Z,101042.75
2022-08-31T11:30:24.569Z,101038.72
2022-08-31T11:32:55.551Z,101037.03
2022-08-31T11:36:06.069Z,101029.97
2022-08-31T11:38:48.457Z,101027.91
2022-08-31T11:41:41.345Z,101024.84
2022-08-31T11:44:11.254Z,101019.28
2022-08-31T11:47:02.289Z,101031.00
2022-08-31T11:49:48.691Z,101014.06
2022-08-31T11:52:48.307Z,101008.72
2022-08-31T11:55:24.179Z,101015.75
2022-08-31T11:58:20.824Z,101016.22
2022-08-31T12:00:58.765Z,101013.47
2022-08-31T12:03:53.896Z,101005.00
2022-08-31T12:07:07.249Z,101019.50
2022-08-31T12:10:04.810Z,101010.66
2022-08-31T12:12:44.445Z,101008.03
2022-08-31T12:15:23.186Z,101013.78
2022-08-31T12:18:05.552Z,101011.56
2022-08-31T12:21:13.066Z,101001.97
2022-08-31T12:23:56.429Z,101014.25
2022-08-31T12:26:45.047Z,101006.97
2022-08-31T12:29:23.891Z,100992.22
2022-08-31T12:32:21.804Z,100992.28
2022-08-31T12:34:57.328Z,100987.41
2022-08-31T12:37:27.592Z,100987.41
2022-08-31T12:40:16.881Z,100985.75
2022-08-31T12:42:57.870Z,101001.81
2022-08-31T12:45:44.432Z,100997.28
2022-08-31T12:48:27.038Z,100999.94
2022-08-31T12:51:03.859Z,100997.16
2022-08-31T12:53:52.873Z,100995.03
2022-08-31T12:56:30.294Z,100995.69
2022-08-31T12:59:09.399Z,100991.28
2022-08-31T13:01:43.062Z,100991.50
2022-08-31T13:04:15.454Z,100993.56
2022-08-31T13:06:45.247Z,100988.88
2022-08-31T13:09:27.450Z,100990.63
2022-08-31T13:11:58.108Z,100983.00
2022-08-31T13:14:28.888Z,100979.69
2022-08-31T13:17:01.302Z,100986.09
2022-08-31T13:19:33.506Z,100980.56
2022-08-31T13:22:05.583Z,100976.31
2022-08-31T13:24:36.855Z,100972.38
2022-08-31T13:27:18.014Z,100973.03
2022-08-31T13:29:47.404Z,100983.88
2022-08-31T13:32:32.618Z,100975.69
2022-08-31T13:35:04.746Z,100961.13
2022-08-31T13:37:38.242Z,100968.00
2022-08-31T13:40:09.931Z,100966.25
2022-08-31T13:42:42.736Z,100969.94
2022-08-31T13:45:26.819Z,100955.75
2022-08-31T13:47:58.412Z,100950.72
2022-08-31T13:50:34.385Z,100951.13
2022-08-31T13:55:54.027Z,100941.69
2022-08-31T13:58:29.366Z,100936.69
2022-08-31T14:01:23.229Z,100937.31
2022-08-31T14:03:57.246Z,100938.88
2022-08-31T14:06:29.801Z,100936.16
2022-08-31T14:09:07.213Z,100936.56
2022-08-31T14:11:35.768Z,100942.25
2022-08-31T14:14:07.372Z,100925.66
2022-08-31T14:16:38.997Z,100934.69
2022-08-31T14:19:12.252Z,100936.59
2022-08-31T14:21:43.658Z,100933.44
2022-08-31T14:24:12.503Z,100921.53
2022-08-31T14:26:42.993Z,100929.66
2022-08-31T14:29:14.473Z,100921.44
2022-08-31T14:31:48.559Z,100929.09
2022-08-31T14:34:26.346Z,100934.66
2022-08-31T14:37:02.164Z,100938.59
2022-08-31T14:39:32.420Z,100931.97
2022-08-31T14:42:02.938Z,100931.53
2022-08-31T14:44:33.940Z,100920.19
2022-08-31T14:47:02.143Z,100929.66
2022-08-31T14:49:36.001Z,100926.53
2022-08-31T14:52:07.062Z,100916.63
2022-08-31T14:54:37.620Z,100918.94
2022-08-31T14:57:12.558Z,100904.97
2022-08-31T14:59:43.445Z,100924.06
2022-08-31T15:02:14.127Z,100918.16
2022-08-31T15:04:45.762Z,100913.41
2022-08-31T15:07:16.594Z,100918.63
2022-08-31T15:09:46.765Z,100906.88
2022-08-31T15:12:16.532Z,100913.22
2022-08-31T15:14:47.145Z,100905.06
2022-08-31T15:17:19.457Z,100911.81
2022-08-31T15:19:50.430Z,100909.19
2022-08-31T15:22:20.680Z,100912.63
2022-08-31T15:24:50.077Z,100909.31
2022-08-31T15:27:18.575Z,100914.66
2022-08-31T15:29:49.621Z,100909.72
2022-08-31T15:32:18.762Z,100904.50
2022-08-31T15:34:53.429Z,100908.22
2022-08-31T15:37:23.002Z,100909.59
2022-08-31T15:39:51.552Z,100910.94
2022-08-31T15:42:21.449Z,100909.69
2022-08-31T15:44:56.205Z,100913.31
2022-08-31T15:47:43.320Z,100909.31
2022-08-31T15:50:11.923Z,100904.88
2022-08-31T15:52:51.062Z,100909.22
2022-08-31T15:55:26.879Z,100906.19
2022-08-31T15:57:59.363Z,100902.78
2022-08-31T16:00:32.661Z,100902.25
2022-08-31T16:03:02.109Z,100908.38
2022-08-31T16:05:35.985Z,100903.25
2022-08-31T16:08:08.383Z,100908.09
2022-08-31T16:10:37.107Z,100902.16
2022-08-31T16:13:06.262Z,100896.34
2022-08-31T16:15:34.517Z,100901.38
2022-08-31T16:18:03.391Z,100894.22
2022-08-31T16:20:31.532Z,100895.53
2022-08-31T16:23:00.707Z,100892.13
2022-08-31T16:25:47.743Z,100887.81
2022-08-31T16:28:17.817Z,100890.41
2022-08-31T16:30:46.402Z,100888.78
2022-08-31T16:33:14.412Z,100878.91
2022-08-31T16:35:44.624Z,100873.50
2022-08-31T16:38:13.112Z,100883.06
2022-08-31T16:40:42.880Z,100879.53
2022-08-31T16:43:11.246Z,100876.91
2022-08-31T16:45:40.324Z,100878.75
2022-08-31T16:48:29.533Z,100871.75
2022-08-31T16:51:02.294Z,100872.25
2022-08-31T16:53:30.714Z,100865.63
2022-08-31T16:56:00.790Z,100873.66
2022-08-31T16:58:50.773Z,100876.88
2022-08-31T17:01:20.222Z,100877.09
2022-08-31T17:03:50.380Z,100866.50
2022-08-31T17:06:19.292Z,100876.47
2022-08-31T17:08:47.228Z,100873.25
2022-08-31T17:11:23.567Z,100883.31
2022-08-31T17:13:58.112Z,100877.47
2022-08-31T17:16:28.335Z,100880.69
2022-08-31T17:18:58.392Z,100876.06
2022-08-31T17:21:29.443Z,100877.69
2022-08-31T17:23:59.773Z,100885.00
2022-08-31T17:26:33.792Z,100879.28
2022-08-31T17:29:03.335Z,100885.59
2022-08-31T17:31:33.612Z,100884.09
2022-08-31T17:34:01.911Z,100879.88
2022-08-31T17:36:37.402Z,100885.88
2022-08-31T17:39:06.355Z,100883.69
2022-08-31T17:41:36.256Z,100889.78
2022-08-31T17:44:05.697Z,100889.19
2022-08-31T17:46:33.867Z,100890.50
2022-08-31T17:49:02.416Z,100884.44
2022-08-31T17:51:35.029Z,100886.28
2022-08-31T17:54:05.194Z,100887.69
2022-08-31T17:56:36.996Z,100893.38
2022-08-31T17:59:05.618Z,100892.38
2022-08-31T18:01:35.728Z,100891.28
2022-08-31T18:04:05.441Z,100900.22
2022-08-31T18:06:33.510Z,100895.38
2022-08-31T18:09:02.200Z,100902.72
2022-08-31T18:11:30.437Z,100903.03
2022-08-31T18:13:59.819Z,100904.72
2022-08-31T18:16:28.683Z,100904.47
2022-08-31T18:18:57.216Z,100904.22
2022-08-31T18:21:25.407Z,100911.66
2022-08-31T18:23:54.546Z,100911.44
2022-08-31T18:26:24.807Z,100923.38
2022-08-31T18:28:53.605Z,100923.44
2022-08-31T18:31:30.859Z,100925.09
2022-08-31T18:33:59.246Z,100928.88
2022-08-31T18:36:29.124Z,100934.28
2022-08-31T18:39:00.155Z,100928.88
2022-08-31T18:41:47.618Z,100932.69
2022-08-31T18:44:34.620Z,100936.19
2022-08-31T18:47:07.465Z,100936.19
2022-08-31T18:49:39.049Z,100934.09
2022-08-31T18:52:09.396Z,100937.06
2022-08-31T18:54:37.446Z,100940.09
2022-08-31T18:57:05.486Z,100943.41
2022-08-31T18:59:33.286Z,100947.97
2022-08-31T19:02:01.256Z,100948.28
2022-08-31T19:04:30.864Z,100951.81
2022-08-31T19:06:59.212Z,100951.28
2022-08-31T19:09:27.000Z,100952.41
2022-08-31T19:12:02.251Z,100951.88
2022-08-31T19:14:32.251Z,100952.09
2022-08-31T19:17:03.745Z,100957.81
2022-08-31T19:19:34.276Z,100955.69
2022-08-31T19:22:02.439Z,100960.88
2022-08-31T19:24:30.279Z,100952.81
2022-08-31T19:26:59.958Z,100959.63
2022-08-31T19:29:30.883Z,100966.72
2022-08-31T19:32:00.866Z,100959.16
2022-08-31T19:34:31.114Z,100967.91
2022-08-31T19:37:02.015Z,100973.38
2022-08-31T19:39:36.959Z,100964.47
2022-08-31T19:42:07.000Z,100970.16
2022-08-31T19:47:25.615Z,100957.63
2022-08-31T19:49:53.787Z,100965.00
2022-08-31T19:52:24.280Z,100971.25
2022-08-31T19:54:52.246Z,100966.72
2022-08-31T19:57:21.758Z,100969.22
2022-08-31T19:59:50.045Z,100964.13
2022-08-31T20:02:18.504Z,100963.38
2022-08-31T20:04:46.361Z,100978.28
2022-08-31T20:07:14.557Z,100965.84
2022-08-31T20:09:43.977Z,100971.53
2022-08-31T20:12:12.324Z,100966.16
2022-08-31T20:14:40.155Z,100965.66
2022-08-31T20:17:09.721Z,100975.16
2022-08-31T20:19:39.673Z,100966.84
2022-08-31T20:22:08.538Z,100976.81
2022-08-31T20:24:39.187Z,100973.09
2022-08-31T20:27:16.458Z,100959.06
2022-08-31T20:29:46.541Z,100963.44
2022-08-31T20:32:14.460Z,100964.81
2022-08-31T20:34:43.488Z,100962.72
2022-08-31T20:37:12.745Z,100954.41
2022-08-31T20:39:42.074Z,100958.78
2022-08-31T20:42:10.229Z,100956.34
2022-08-31T20:44:39.680Z,100960.13
2022-08-31T20:47:35.641Z,100958.00
2022-08-31T20:50:07.212Z,100956.09
2022-08-31T20:52:36.604Z,100951.84
2022-08-31T20:55:07.211Z,100954.03
2022-08-31T20:57:37.872Z,100954.59
2022-08-31T21:00:10.410Z,100948.34
2022-08-31T21:02:40.015Z,100948.13
2022-08-31T21:05:37.011Z,100954.59
2022-08-31T21:07:59.726Z,100958.94
2022-08-31T21:10:37.733Z,100963.28
2022-08-31T21:13:11.276Z,100956.25
2022-08-31T21:15:47.034Z,100961.38
2022-08-31T21:18:17.984Z,100956.81
2022-08-31T21:20:46.121Z,100952.53
2022-08-31T21:23:13.963Z,100953.03
2022-08-31T21:25:44.901Z,100952.00
2022-08-31T21:28:16.973Z,100949.09
2022-08-31T21:30:49.578Z,100953.91
2022-08-31T21:33:17.881Z,100955.31
2022-08-31T21:35:46.011Z,100962.59
2022-08-31T21:38:14.158Z,100967.72
2022-08-31T21:40:48.919Z,100971.78
2022-08-31T21:43:17.059Z,100963.94
2022-08-31T21:45:46.399Z,100964.75
2022-08-31T21:48:14.218Z,100977.44
2022-08-31T21:50:42.317Z,100971.56
2022-08-31T21:53:10.333Z,100976.69
2022-08-31T21:55:38.807Z,100969.13
2022-08-31T21:58:06.856Z,100977.53
2022-08-31T22:00:34.972Z,100966.75
2022-08-31T22:03:05.480Z,100968.94
2022-08-31T22:05:38.928Z,100980.28
2022-08-31T22:08:07.057Z,100971.66
2022-08-31T22:10:39.179Z,100978.13
2022-08-31T22:13:07.784Z,100979.78
2022-08-31T22:15:36.691Z,100961.16
2022-08-31T22:18:46.159Z,100972.22
2022-08-31T22:20:55.283Z,100972.22
2022-08-31T22:23:23.962Z,100979.00
2022-08-31T22:25:51.806Z,100973.31
2022-08-31T22:28:21.876Z,100973.88
2022-08-31T22:30:50.247Z,100964.69
2022-08-31T22:33:19.455Z,100972.25
2022-08-31T22:35:47.441Z,100970.06
2022-08-31T22:38:19.027Z,100973.31
2022-08-31T22:40:50.000Z,100969.81
2022-08-31T22:43:18.741Z,100970.34
2022-08-31T22:45:48.624Z,100979.25
2022-08-31T22:48:16.980Z,100976.03
2022-08-31T22:50:46.328Z,100967.94
2022-08-31T22:53:14.174Z,100971.72
2022-08-31T22:55:43.310Z,100976.84
2022-08-31T22:58:12.591Z,100980.06
2022-08-31T23:00:40.922Z,100973.88
2022-08-31T23:03:11.754Z,100979.56
2022-08-31T23:05:43.477Z,100977.16
2022-08-31T23:08:14.110Z,100979.59
2022-08-31T23:10:42.547Z,100978.50
2022-08-31T23:13:10.406Z,100973.94
2022-08-31T23:15:38.458Z,100969.91
2022-08-31T23:18:10.557Z,100973.66
2022-08-31T23:20:42.095Z,100972.84
2022-08-31T23:23:10.402Z,100966.66
2022-08-31T23:25:40.685Z,100971.78
2022-08-31T23:28:08.949Z,100970.69
2022-08-31T23:30:37.853Z,100970.69
2022-08-31T23:33:06.030Z,100967.19
2022-08-31T23:35:34.663Z,100972.84
2022-08-31T23:38:02.763Z,100970.72
2022-08-31T23:40:34.019Z,100968.53
2022-08-31T23:43:05.040Z,100966.94
2022-08-31T23:45:33.462Z,100972.88
2022-08-31T23:48:01.485Z,100965.06
2022-08-31T23:50:29.677Z,100969.66
2022-08-31T23:52:57.513Z,100968.03
2022-08-31T23:55:31.415Z,100966.38
2022-08-31T23:57:59.448Z,100959.13
